Observations for Trim Market St
| Time | AQI | Temp °C | Hum % | Pres Pa | CO μg/m³ | H₂S μg/m³ | NO μg/m³ | NO₂ μg/m³ | O₃ μg/m³ | SO₂ μg/m³ | PM1 μg/m³ | PM2.5 μg/m³ | PM10 μg/m³ |
|---|---|---|---|---|---|---|---|---|---|---|---|---|---|
| Monday 17 August 2026 | |||||||||||||
| 17:12 | 2 | 24.7 | 53 | 56,437 | 0 | 0 | 1.17 | 12.71 | 78.81 | 0 | 0 | 2.32 | 2.44 |
| 17:11 | 2 | 24.6 | 53 | 56,447 | 0 | 0 | 1.18 | 12.47 | 82.17 | 0 | 0 | 1.81 | 1.99 |
| 17:10 | 2 | 24.6 | 53 | 56,391 | 0 | 0 | 1.03 | 12.43 | 76.9 | 0 | 0 | 1.81 | 1.99 |
| 17:09 | 2 | 24.6 | 53 | 56,269 | 0 | 0 | 1.04 | 12.26 | 80.06 | 0 | 0 | 2.32 | 2.44 |
| 17:08 | 2 | 24.6 | 53 | 56,129 | 0 | 0 | 1 | 12.04 | 74.54 | 0 | 0.71 | 2.31 | 2.45 |
| 17:07 | 2 | 24.6 | 53 | 55,838 | 0 | 0 | 1.01 | 12.01 | 78.99 | 0 | 0 | 1.8 | 1.98 |
| 17:06 | 2 | 24.6 | 53 | 55,684 | 0 | 0 | 1 | 12.31 | 85.49 | 0 | 0 | 2.31 | 2.45 |
| 17:05 | 2 | 24.6 | 53 | 55,733 | 0 | 0 | 1.06 | 12.47 | 88.55 | 0 | 0 | 1.8 | 1.98 |
| 17:04 | 2 | 24.6 | 53 | 55,822 | 0 | 0 | 1.06 | 12.36 | 84.47 | 0 | 0 | 2.31 | 2.45 |
| 17:03 | 2 | 24.6 | 53 | 55,943 | 0 | 0 | 1.41 | 12.38 | 86.24 | 0 | 0.71 | 2.83 | 3.17 |
| 17:01 | 2 | 24.6 | 53 | 56,106 | 0 | 0 | 1.3 | 12.19 | 85.42 | 0 | 0 | 2.32 | 2.44 |
| 17:00 | 2 | 24.6 | 53 | 56,216 | 0 | 0 | 1.38 | 12.43 | 79.36 | 0 | 0 | 1.81 | 2 |
| 16:59 | 2 | 24.6 | 53 | 56,368 | 0 | 0 | 1.29 | 12.82 | 76.81 | 0 | 0 | 2.33 | 2.43 |
| 16:58 | 2 | 24.7 | 53 | 56,544 | 0 | 0 | 1.11 | 12.18 | 80.3 | 0 | 0 | 1.82 | 2 |
| 16:57 | 2 | 24.7 | 53 | 56,722 | 0 | 0 | 1.07 | 12.14 | 84.67 | 0 | 0 | 1.82 | 2 |
| 16:55 | 2 | 24.8 | 53 | 56,965 | 0 | 0 | 1.04 | 11.77 | 75.62 | 0 | 0 | 2.85 | 3.88 |
| 16:54 | 2 | 24.8 | 53 | 56,900 | 0 | 0 | 1.16 | 11.8 | 60.98 | 0 | 0 | 1.82 | 2 |
| 16:53 | 2 | 24.9 | 53 | 56,767 | 0 | 0 | 1.09 | 11.93 | 77.76 | 0 | 0 | 1.82 | 2 |
| 16:52 | 2 | 24.9 | 53 | 56,597 | 0 | 0 | 1.07 | 11.99 | 70.57 | 0 | 0 | 1.82 | 2.42 |
| 16:50 | 2 | 25 | 53 | 56,659 | 0 | 0 | 1.07 | 12.51 | 77.76 | 0 | 0 | 2.34 | 3.88 |